createdAt,value
2023-03-07T00:04:00.314Z,2.80
2023-03-07T00:10:02.230Z,2.80
2023-03-07T00:16:07.792Z,2.90
2023-03-07T00:22:13.059Z,2.90
2023-03-07T00:28:16.366Z,2.90
2023-03-07T00:34:18.237Z,2.80
2023-03-07T00:40:20.213Z,2.80
2023-03-07T00:46:24.721Z,2.80
2023-03-07T00:52:26.571Z,2.70
2023-03-07T00:58:31.923Z,2.70
2023-03-07T01:04:33.791Z,2.70
2023-03-07T01:10:35.963Z,2.60
2023-03-07T01:16:38.685Z,2.50
2023-03-07T01:22:40.680Z,2.50
2023-03-07T01:28:43.523Z,2.50
2023-03-07T01:34:45.421Z,2.30
2023-03-07T01:40:47.332Z,2.30
2023-03-07T01:46:56.636Z,2.20
2023-03-07T01:53:00.363Z,2.10
2023-03-07T01:59:02.484Z,2.00
2023-03-07T02:05:41.130Z,2.10
2023-03-07T02:11:44.982Z,2.00
2023-03-07T02:17:47.766Z,2.00
2023-03-07T02:24:22.449Z,1.90
2023-03-07T02:30:24.606Z,1.90
2023-03-07T02:36:34.596Z,1.90
2023-03-07T02:42:41.872Z,1.90
2023-03-07T02:48:43.727Z,2.00
2023-03-07T02:54:45.611Z,1.90
2023-03-07T03:00:47.637Z,1.90
2023-03-07T03:06:53.650Z,1.90
2023-03-07T03:12:55.544Z,2.00
2023-03-07T03:18:57.548Z,1.90
2023-03-07T03:24:59.425Z,1.80
2023-03-07T03:31:04.871Z,1.80
2023-03-07T03:37:07.881Z,1.90
2023-03-07T03:43:09.735Z,1.80
2023-03-07T03:49:16.736Z,1.80
2023-03-07T03:55:18.665Z,1.90
2023-03-07T04:01:24.051Z,1.80
2023-03-07T04:07:29.052Z,2.00
2023-03-07T04:13:32.611Z,2.10
2023-03-07T04:19:34.483Z,2.00
2023-03-07T04:25:36.428Z,2.00
2023-03-07T04:31:38.329Z,2.20
2023-03-07T04:37:40.185Z,2.20
2023-03-07T04:43:42.300Z,2.30
2023-03-07T04:49:44.202Z,2.30
2023-03-07T04:55:46.182Z,2.40
2023-03-07T05:01:48.040Z,2.50
2023-03-07T05:07:49.919Z,2.60
2023-03-07T05:13:51.850Z,2.70
2023-03-07T05:19:56.305Z,2.70
2023-03-07T05:25:58.197Z,2.80
2023-03-07T05:32:01.535Z,2.70
2023-03-07T05:38:03.468Z,2.70
2023-03-07T05:44:05.620Z,2.80
2023-03-07T05:50:09.188Z,2.80
2023-03-07T05:56:11.079Z,2.80
2023-03-07T06:02:13.171Z,2.80
2023-03-07T06:08:15.050Z,2.80
2023-03-07T06:14:16.998Z,2.80
2023-03-07T06:20:20.831Z,2.80
2023-03-07T06:26:22.779Z,2.80
2023-03-07T06:32:24.724Z,2.90
2023-03-07T06:38:27.896Z,2.90
2023-03-07T06:44:29.873Z,2.90
2023-03-07T06:50:35.554Z,3.00
2023-03-07T06:56:37.700Z,3.00
2023-03-07T07:02:39.753Z,3.10
2023-03-07T07:08:41.670Z,3.10
2023-03-07T07:14:43.534Z,3.10
2023-03-07T07:20:45.467Z,3.20
2023-03-07T07:26:47.413Z,3.20
2023-03-07T07:32:49.410Z,3.30
2023-03-07T07:38:51.391Z,3.30
2023-03-07T07:44:53.286Z,3.30
2023-03-07T07:50:55.132Z,3.40
2023-03-07T07:56:58.172Z,3.40
2023-03-07T08:03:00.968Z,3.60
2023-03-07T08:09:05.403Z,3.60
2023-03-07T08:15:08.116Z,3.60
2023-03-07T08:21:10.279Z,3.60
2023-03-07T08:27:12.211Z,3.70
2023-03-07T08:33:14.364Z,3.70
2023-03-07T08:39:16.255Z,3.90
2023-03-07T08:45:18.350Z,3.90
2023-03-07T08:51:20.228Z,3.90
2023-03-07T08:57:22.101Z,3.90
2023-03-07T09:03:23.953Z,3.90
2023-03-07T09:09:27.717Z,4.00
2023-03-07T09:15:29.601Z,4.00
2023-03-07T09:21:31.962Z,4.10
2023-03-07T09:27:33.905Z,4.10
2023-03-07T09:33:36.376Z,4.00
2023-03-07T09:39:38.429Z,4.00
2023-03-07T09:46:10.887Z,4.20
2023-03-07T09:52:20.130Z,4.20
2023-03-07T09:58:25.953Z,4.20
2023-03-07T10:05:23.003Z,4.20
2023-03-07T10:12:10.251Z,4.30
2023-03-07T10:18:42.850Z,4.20
2023-03-07T10:24:56.611Z,4.00
2023-03-07T10:31:13.470Z,4.00
2023-03-07T10:37:21.820Z,3.80
2023-03-07T10:43:33.660Z,3.70
2023-03-07T10:49:45.454Z,3.40
2023-03-07T10:55:47.424Z,3.10
2023-03-07T11:01:57.793Z,2.90
2023-03-07T11:08:20.205Z,2.70
2023-03-07T11:14:22.514Z,2.40
2023-03-07T11:20:50.540Z,2.40
2023-03-07T11:26:58.334Z,2.40
2023-03-07T11:33:22.901Z,2.50
2023-03-07T11:39:39.982Z,2.40
2023-03-07T11:46:07.120Z,2.20
2023-03-07T11:52:39.065Z,2.20
2023-03-07T11:58:40.821Z,2.30
2023-03-07T12:05:31.204Z,2.30
2023-03-07T12:11:53.904Z,2.30
2023-03-07T12:18:53.874Z,2.40
2023-03-07T12:25:00.660Z,2.50
2023-03-07T12:31:08.402Z,2.40
2023-03-07T12:37:23.809Z,2.50
2023-03-07T12:43:43.867Z,2.40
2023-03-07T12:50:14.739Z,2.30
2023-03-07T12:56:46.567Z,2.20
2023-03-07T13:03:06.436Z,2.20
2023-03-07T13:09:21.556Z,2.10
2023-03-07T13:15:23.920Z,2.10
2023-03-07T13:21:33.007Z,2.10
2023-03-07T13:27:40.938Z,2.00
2023-03-07T13:33:43.635Z,1.90
2023-03-07T13:40:02.449Z,2.00
2023-03-07T13:46:46.640Z,2.00
2023-03-07T13:52:48.820Z,1.90
2023-03-07T13:59:08.663Z,1.90
2023-03-07T14:05:10.560Z,1.90
2023-03-07T14:11:30.933Z,2.10
2023-03-07T14:17:35.431Z,2.10
2023-03-07T14:24:07.506Z,2.20
2023-03-07T14:30:17.045Z,2.10
2023-03-07T14:36:30.948Z,2.10
2023-03-07T14:42:35.745Z,2.20
2023-03-07T14:49:00.341Z,2.10
2023-03-07T14:55:05.918Z,2.30
2023-03-07T15:01:19.517Z,2.20
2023-03-07T15:07:22.312Z,2.20
2023-03-07T15:13:38.039Z,2.30
2023-03-07T15:20:08.047Z,2.30
2023-03-07T15:26:21.412Z,2.20
2023-03-07T15:32:34.673Z,2.30
2023-03-07T15:38:44.617Z,2.30
2023-03-07T15:44:56.063Z,2.20
2023-03-07T15:51:18.193Z,2.20
2023-03-07T15:57:48.238Z,2.30
2023-03-07T16:03:59.209Z,2.30
2023-03-07T16:10:08.498Z,2.30
2023-03-07T16:24:26.486Z,2.30
2023-03-07T16:30:35.487Z,2.20
2023-03-07T16:36:54.542Z,2.20
2023-03-07T16:49:34.242Z,2.20
2023-03-07T16:55:38.965Z,2.20
2023-03-07T17:01:51.213Z,2.30
2023-03-07T17:08:01.694Z,2.20
2023-03-07T17:14:09.411Z,2.20
2023-03-07T17:20:25.051Z,2.10
2023-03-07T17:26:40.730Z,1.90
2023-03-07T17:32:50.852Z,1.90
2023-03-07T17:38:58.841Z,1.80
2023-03-07T17:45:08.978Z,1.80
2023-03-07T17:51:23.417Z,1.70
2023-03-07T17:57:27.315Z,1.70
2023-03-07T18:03:29.581Z,1.70
2023-03-07T18:09:36.538Z,1.50
2023-03-07T18:15:48.860Z,1.50
2023-03-07T18:22:03.681Z,1.50
2023-03-07T18:28:11.681Z,1.60
2023-03-07T18:34:21.771Z,1.70
2023-03-07T18:40:30.444Z,1.60
2023-03-07T18:46:33.315Z,1.70
2023-03-07T18:52:36.556Z,1.90
2023-03-07T18:58:56.264Z,1.90
2023-03-07T19:04:58.985Z,1.90
2023-03-07T19:11:11.763Z,1.70
2023-03-07T19:17:23.059Z,1.80
2023-03-07T19:23:29.199Z,1.80
2023-03-07T19:29:32.180Z,1.70
2023-03-07T19:35:34.820Z,1.60
2023-03-07T19:41:38.000Z,1.70
2023-03-07T19:47:40.486Z,1.50
2023-03-07T19:53:50.626Z,1.30
2023-03-07T19:59:56.927Z,1.40
2023-03-07T20:05:59.803Z,1.30
2023-03-07T20:12:02.415Z,1.30
2023-03-07T20:18:06.119Z,1.30
2023-03-07T20:24:23.311Z,1.10
2023-03-07T20:30:26.135Z,1.00
2023-03-07T20:36:34.281Z,1.20
2023-03-07T20:42:36.949Z,1.10
2023-03-07T20:48:40.137Z,1.20
2023-03-07T20:54:46.153Z,1.20
2023-03-07T21:00:53.839Z,1.10
2023-03-07T21:06:59.134Z,1.10
2023-03-07T21:13:05.037Z,1.20
2023-03-07T21:19:07.988Z,1.30
2023-03-07T21:25:20.961Z,1.20
2023-03-07T21:31:46.883Z,1.20
2023-03-07T21:37:50.829Z,1.20
2023-03-07T21:44:00.441Z,1.10
2023-03-07T21:50:06.783Z,1.20
2023-03-07T21:56:16.898Z,1.30
2023-03-07T22:02:23.324Z,1.30
2023-03-07T22:08:26.421Z,1.30
2023-03-07T22:14:29.132Z,1.50
2023-03-07T22:20:32.361Z,1.50
2023-03-07T22:26:34.977Z,1.50
2023-03-07T22:38:58.935Z,1.40
2023-03-07T22:45:04.874Z,1.40
2023-03-07T22:51:18.241Z,1.40
2023-03-07T22:57:21.369Z,1.50
2023-03-07T23:03:24.788Z,1.40
2023-03-07T23:09:27.564Z,1.30
2023-03-07T23:15:30.476Z,1.30
2023-03-07T23:21:44.611Z,1.20
2023-03-07T23:27:49.891Z,1.20
2023-03-07T23:34:00.564Z,1.40
2023-03-07T23:40:03.896Z,1.40
2023-03-07T23:46:08.884Z,1.20
2023-03-07T23:52:11.686Z,1.40
2023-03-07T23:58:14.558Z,1.20
